Arctic Fury — WDE9335 — position and weather

sailwx.info

Track history (hours):
 
Tides and Currents Weather Stations Pressure Air Temp Water Temp Dewpoint Dewpoint Depression Visibility Wind Speed Wind Dir Waves Ship Positions

Arctic Fury

Owner: Fury Group Inc, Seattle, WA. More information available from US FCC via Universal Licensing System and Coast Guard Vessel Documentation Center.

Last reported at 2015-Oct-12 14:33 UTC. Time now 2016-Feb-14 12:42 UTC.
Position N 47°40' W 122°23'.
Warning: this ship's position is months out of date.

Length 43 m; draft 5 m.

Type: Fishing. MMSI: 366468000.

Date/timePositionNaut miles runAvg speedWind from/ knotsBaromVisibWave heightAir tempDewpointWater temp
2015-Oct-12 14:33N 47°40' W 122°23'0 0.0
2015-Oct-12 13:33N 47°40' W 122°23'0 0.0
2015-Oct-12 12:33N 47°40' W 122°23'0 0.0
2015-Oct-12 11:33N 47°40' W 122°23'0 0.0
2015-Oct-12 10:33N 47°40' W 122°23'0 0.0
2015-Oct-12 09:33N 47°40' W 122°23'0 0.0
2015-Oct-12 08:33N 47°40' W 122°23'0 0.0
2015-Oct-12 07:33N 47°40' W 122°23'0 0.0
2015-Oct-12 06:33N 47°40' W 122°23'0 0.0
2015-Oct-12 05:33N 47°40' W 122°23'0 0.0
2015-Oct-12 04:33N 47°40' W 122°23'0 0.0
2015-Oct-12 03:33N 47°40' W 122°23'1 1.1
2015-Oct-12 02:33N 47°40' W 122°24'4 4.5
2015-Oct-12 01:33N 47°44' W 122°27'9 8.8
2015-Oct-12 00:33N 47°53' W 122°30'10 9.2
2015-Oct-11 23:26N 48°01' W 122°39'9 9.2
2015-Oct-11 22:29N 48°09' W 122°45'910.0
2015-Oct-11 21:33N 48°11' W 122°58'1010.3
2015-Oct-11 20:33N 48°12' W 123°13'1010.0
2015-Oct-11 19:31N 48°12' W 123°29'1010.0
2015-Oct-11 18:31N 48°12' W 123°44'1210.4
2015-Oct-11 17:21N 48°15' W 124°02'8 9.8
2015-Oct-11 16:29N 48°18' W 124°13'10 8.6
2015-Oct-11 15:20N 48°22' W 124°27'74 4.3
2015-Oct-10 22:14N 47°09' W 124°42'5 8.1
2015-Oct-10 21:33N 47°05' W 124°36'8 8.2
2015-Oct-10 20:33N 46°60' W 124°26'7 7.0
2015-Oct-10 19:33N 46°56' W 124°18'5 0.1
2015-Oct-09 00:30N 46°55' W 124°12'4 4.2
2015-Oct-08 23:33N 46°52' W 124°16'6 6.2
2015-Oct-08 22:33N 46°49' W 124°24'5 5.2
2015-Oct-08 21:33N 46°47' W 124°31'4 3.9
2015-Oct-08 20:33N 46°45' W 124°36'4 4.5
2015-Oct-08 19:33N 46°42' W 124°41'3 3.4
2015-Oct-08 18:33N 46°40' W 124°45'8 7.6
2015-Oct-08 17:33N 46°34' W 124°38'7 6.7
2015-Oct-08 16:33N 46°39' W 124°45'7 7.3
2015-Oct-08 15:33N 46°44' W 124°52'6 5.9
2015-Oct-08 14:28N 46°50' W 124°56'10 3.0
2015-Oct-08 11:17N 46°58' W 124°49'2 0.6
2015-Oct-08 08:07N 46°57' W 124°52'5 0.9
2015-Oct-08 02:20N 46°53' W 124°57'12 5.9
2015-Oct-08 00:21N 47°04' W 124°58'7 7.7
2015-Oct-07 23:29N 47°11' W 124°57'7 7.2
2015-Oct-07 22:33N 47°17' W 124°54'7 7.3
2015-Oct-07 21:33N 47°23' W 124°48'4 0.3
2015-Oct-07 07:15N 47°27' W 124°45'6 7.1
2015-Oct-07 06:21N 47°22' W 124°40'6 7.1
2015-Oct-07 05:31N 47°17' W 124°35'9 7.3
2015-Oct-07 04:19N 47°10' W 124°28'5 6.9
2015-Oct-07 03:31N 47°05' W 124°23'7 7.0
2015-Oct-07 02:32N 46°59' W 124°17'6 0.2
2015-Oct-05 11:33N 46°54' W 124°12'4 3.7
2015-Oct-05 10:33N 46°52' W 124°17'3 3.2
2015-Oct-05 09:33N 46°51' W 124°21'3 3.1
2015-Oct-05 08:33N 46°49' W 124°25'3 2.9
2015-Oct-05 07:33N 46°48' W 124°29'3 3.1
2015-Oct-05 06:33N 46°46' W 124°33'3 3.2
2015-Oct-05 05:33N 46°45' W 124°37'4 3.5
2015-Oct-05 04:33N 46°43' W 124°41'4 3.5
2015-Oct-05 03:33N 46°41' W 124°46'3 2.8
2015-Oct-05 02:33N 46°39' W 124°49'2 2.2
2015-Oct-05 01:33N 46°38' W 124°46'3 2.9
2015-Oct-05 00:33N 46°38' W 124°42'3 3.0
2015-Oct-04 23:33N 46°36' W 124°39'3 3.0
2015-Oct-04 22:33N 46°33' W 124°38'3 3.0
2015-Oct-04 21:33N 46°30' W 124°37'3 3.1
2015-Oct-04 20:33N 46°28' W 124°35'3 3.0
2015-Oct-04 19:33N 46°25' W 124°36'3 2.9
2015-Oct-04 18:33N 46°22' W 124°39'2 2.2
2015-Oct-04 17:33N 46°24' W 124°37'3 3.2
2015-Oct-04 16:33N 46°27' W 124°34'1 0.6
2015-Oct-04 15:32N 46°27' W 124°33'1 0.7
2015-Oct-04 14:33N 46°26' W 124°34'4 4.3
2015-Oct-04 13:33N 46°31' W 124°33'3 3.2
2015-Oct-04 12:33N 46°27' W 124°34'1 0.9
2015-Oct-04 11:33N 46°28' W 124°34'1 1.0
2015-Oct-04 10:33N 46°29' W 124°34'1 0.8
2015-Oct-04 09:33N 46°30' W 124°35'1 0.7
2015-Oct-04 08:33N 46°31' W 124°35'1 0.7
2015-Oct-04 07:33N 46°31' W 124°35'1 0.6
2015-Oct-04 06:33N 46°32' W 124°35'1 0.7
2015-Oct-04 05:33N 46°33' W 124°35'1 1.4
2015-Oct-04 04:33N 46°34' W 124°36'2 2.5
2015-Oct-04 03:33N 46°36' W 124°39'2 1.7
2015-Oct-04 02:33N 46°37' W 124°40'3 3.0
2015-Oct-04 01:33N 46°38' W 124°44'1 0.6
2015-Oct-04 00:33N 46°38' W 124°43'3 3.3
2015-Oct-03 23:33N 46°37' W 124°39'3 3.0
2015-Oct-03 22:33N 46°34' W 124°38'1 1.1
2015-Oct-03 21:33N 46°35' W 124°38'3 3.1
2015-Oct-03 20:33N 46°37' W 124°41'3 3.1
2015-Oct-03 19:33N 46°39' W 124°45'3 3.5
2015-Oct-03 18:33N 46°38' W 124°39'9 8.6
2015-Oct-03 17:33N 46°44' W 124°31'9 9.0
2015-Oct-03 16:33N 46°50' W 124°21'8 7.5
2015-Oct-03 15:32N 46°55' W 124°12'0 0.0
2015-Oct-03 00:29N 46°54' W 124°11'7 7.5
2015-Oct-02 23:33N 46°50' W 124°19'8 8.1
2015-Oct-02 22:33N 46°44' W 124°27'8 8.2
2015-Oct-02 21:33N 46°38' W 124°35'4 3.5
2015-Oct-02 20:33N 46°35' W 124°38'2 2.1
2015-Oct-02 19:33N 46°37' W 124°39'3 3.0
2015-Oct-02 18:33N 46°38' W 124°43'1 0.6
2015-Oct-02 17:33N 46°39' W 124°43'3 3.3
2015-Oct-02 16:33N 46°37' W 124°40'3 3.0
2015-Oct-02 15:33N 46°34' W 124°38'1 1.5
2015-Oct-02 14:33N 46°33' W 124°39'  
Track history (hours):
 
Tides and Currents Weather Stations Pressure Air Temp Water Temp Dewpoint Dewpoint Depression Visibility Wind Speed Wind Dir Waves Ship Positions

Arctic Fury

Owner: Fury Group Inc, Seattle, WA. More information available from US FCC via Universal Licensing System and Coast Guard Vessel Documentation Center.

Last reported at 2015-Oct-12 14:33 UTC. Time now 2016-Feb-14 12:42 UTC.
Position N 47°40' W 122°23'.
Warning: this ship's position is months out of date.

Length 43 m; draft 5 m.

Type: Fishing. MMSI: 366468000.

Date/timePositionNaut miles runAvg speedWind from/ knotsBaromVisibWave heightAir tempDewpointWater temp
2015-Oct-12 14:33N 47°40' W 122°23'0 0.0
2015-Oct-12 13:33N 47°40' W 122°23'0 0.0
2015-Oct-12 12:33N 47°40' W 122°23'0 0.0
2015-Oct-12 11:33N 47°40' W 122°23'0 0.0
2015-Oct-12 10:33N 47°40' W 122°23'0 0.0
2015-Oct-12 09:33N 47°40' W 122°23'0 0.0
2015-Oct-12 08:33N 47°40' W 122°23'0 0.0
2015-Oct-12 07:33N 47°40' W 122°23'0 0.0
2015-Oct-12 06:33N 47°40' W 122°23'0 0.0
2015-Oct-12 05:33N 47°40' W 122°23'0 0.0
2015-Oct-12 04:33N 47°40' W 122°23'0 0.0
2015-Oct-12 03:33N 47°40' W 122°23'1 1.1
2015-Oct-12 02:33N 47°40' W 122°24'4 4.5
2015-Oct-12 01:33N 47°44' W 122°27'9 8.8
2015-Oct-12 00:33N 47°53' W 122°30'10 9.2
2015-Oct-11 23:26N 48°01' W 122°39'9 9.2
2015-Oct-11 22:29N 48°09' W 122°45'910.0
2015-Oct-11 21:33N 48°11' W 122°58'1010.3
2015-Oct-11 20:33N 48°12' W 123°13'1010.0
2015-Oct-11 19:31N 48°12' W 123°29'1010.0
2015-Oct-11 18:31N 48°12' W 123°44'1210.4
2015-Oct-11 17:21N 48°15' W 124°02'8 9.8
2015-Oct-11 16:29N 48°18' W 124°13'10 8.6
2015-Oct-11 15:20N 48°22' W 124°27'74 4.3
2015-Oct-10 22:14N 47°09' W 124°42'5 8.1
2015-Oct-10 21:33N 47°05' W 124°36'8 8.2
2015-Oct-10 20:33N 46°60' W 124°26'7 7.0
2015-Oct-10 19:33N 46°56' W 124°18'5 0.1
2015-Oct-09 00:30N 46°55' W 124°12'4 4.2
2015-Oct-08 23:33N 46°52' W 124°16'6 6.2
2015-Oct-08 22:33N 46°49' W 124°24'5 5.2
2015-Oct-08 21:33N 46°47' W 124°31'4 3.9
2015-Oct-08 20:33N 46°45' W 124°36'4 4.5
2015-Oct-08 19:33N 46°42' W 124°41'3 3.4
2015-Oct-08 18:33N 46°40' W 124°45'8 7.6
2015-Oct-08 17:33N 46°34' W 124°38'7 6.7
2015-Oct-08 16:33N 46°39' W 124°45'7 7.3
2015-Oct-08 15:33N 46°44' W 124°52'6 5.9
2015-Oct-08 14:28N 46°50' W 124°56'10 3.0
2015-Oct-08 11:17N 46°58' W 124°49'2 0.6
2015-Oct-08 08:07N 46°57' W 124°52'5 0.9
2015-Oct-08 02:20N 46°53' W 124°57'12 5.9
2015-Oct-08 00:21N 47°04' W 124°58'7 7.7
2015-Oct-07 23:29N 47°11' W 124°57'7 7.2
2015-Oct-07 22:33N 47°17' W 124°54'7 7.3
2015-Oct-07 21:33N 47°23' W 124°48'4 0.3
2015-Oct-07 07:15N 47°27' W 124°45'6 7.1
2015-Oct-07 06:21N 47°22' W 124°40'6 7.1
2015-Oct-07 05:31N 47°17' W 124°35'9 7.3
2015-Oct-07 04:19N 47°10' W 124°28'5 6.9
2015-Oct-07 03:31N 47°05' W 124°23'7 7.0
2015-Oct-07 02:32N 46°59' W 124°17'6 0.2
2015-Oct-05 11:33N 46°54' W 124°12'4 3.7
2015-Oct-05 10:33N 46°52' W 124°17'3 3.2
2015-Oct-05 09:33N 46°51' W 124°21'3 3.1
2015-Oct-05 08:33N 46°49' W 124°25'3 2.9
2015-Oct-05 07:33N 46°48' W 124°29'3 3.1
2015-Oct-05 06:33N 46°46' W 124°33'3 3.2
2015-Oct-05 05:33N 46°45' W 124°37'4 3.5
2015-Oct-05 04:33N 46°43' W 124°41'4 3.5
2015-Oct-05 03:33N 46°41' W 124°46'3 2.8
2015-Oct-05 02:33N 46°39' W 124°49'2 2.2
2015-Oct-05 01:33N 46°38' W 124°46'3 2.9
2015-Oct-05 00:33N 46°38' W 124°42'3 3.0
2015-Oct-04 23:33N 46°36' W 124°39'3 3.0
2015-Oct-04 22:33N 46°33' W 124°38'3 3.0
2015-Oct-04 21:33N 46°30' W 124°37'3 3.1
2015-Oct-04 20:33N 46°28' W 124°35'3 3.0
2015-Oct-04 19:33N 46°25' W 124°36'3 2.9
2015-Oct-04 18:33N 46°22' W 124°39'2 2.2
2015-Oct-04 17:33N 46°24' W 124°37'3 3.2
2015-Oct-04 16:33N 46°27' W 124°34'1 0.6
2015-Oct-04 15:32N 46°27' W 124°33'1 0.7
2015-Oct-04 14:33N 46°26' W 124°34'4 4.3
2015-Oct-04 13:33N 46°31' W 124°33'3 3.2
2015-Oct-04 12:33N 46°27' W 124°34'1 0.9
2015-Oct-04 11:33N 46°28' W 124°34'1 1.0
2015-Oct-04 10:33N 46°29' W 124°34'1 0.8
2015-Oct-04 09:33N 46°30' W 124°35'1 0.7
2015-Oct-04 08:33N 46°31' W 124°35'1 0.7
2015-Oct-04 07:33N 46°31' W 124°35'1 0.6
2015-Oct-04 06:33N 46°32' W 124°35'1 0.7
2015-Oct-04 05:33N 46°33' W 124°35'1 1.4
2015-Oct-04 04:33N 46°34' W 124°36'2 2.5
2015-Oct-04 03:33N 46°36' W 124°39'2 1.7
2015-Oct-04 02:33N 46°37' W 124°40'3 3.0
2015-Oct-04 01:33N 46°38' W 124°44'1 0.6
2015-Oct-04 00:33N 46°38' W 124°43'3 3.3
2015-Oct-03 23:33N 46°37' W 124°39'3 3.0
2015-Oct-03 22:33N 46°34' W 124°38'1 1.1
2015-Oct-03 21:33N 46°35' W 124°38'3 3.1
2015-Oct-03 20:33N 46°37' W 124°41'3 3.1
2015-Oct-03 19:33N 46°39' W 124°45'3 3.5
2015-Oct-03 18:33N 46°38' W 124°39'9 8.6
2015-Oct-03 17:33N 46°44' W 124°31'9 9.0
2015-Oct-03 16:33N 46°50' W 124°21'8 7.5
2015-Oct-03 15:32N 46°55' W 124°12'0 0.0
2015-Oct-03 00:29N 46°54' W 124°11'7 7.5
2015-Oct-02 23:33N 46°50' W 124°19'8 8.1
2015-Oct-02 22:33N 46°44' W 124°27'8 8.2
2015-Oct-02 21:33N 46°38' W 124°35'4 3.5
2015-Oct-02 20:33N 46°35' W 124°38'2 2.1
2015-Oct-02 19:33N 46°37' W 124°39'3 3.0
2015-Oct-02 18:33N 46°38' W 124°43'1 0.6
2015-Oct-02 17:33N 46°39' W 124°43'3 3.3
2015-Oct-02 16:33N 46°37' W 124°40'3 3.0
2015-Oct-02 15:33N 46°34' W 124°38'1 1.5
2015-Oct-02 14:33N 46°33' W 124°39'  

Dump ship's entire track history